sensor_id;sensor_type;location;lat;lon;timestamp;P1;durP1;ratioP1;P2;durP2;ratioP2
73729;SDS011;62036;48.128;16.458;2022-09-01T00:01:05;4.38;;;3.03;;
73729;SDS011;62036;48.128;16.458;2022-09-01T00:03:37;4.45;;;3.17;;
73729;SDS011;62036;48.128;16.458;2022-09-01T00:06:03;4.53;;;2.85;;
73729;SDS011;62036;48.128;16.458;2022-09-01T00:08:33;3.35;;;2.70;;
73729;SDS011;62036;48.128;16.458;2022-09-01T00:10:59;4.38;;;2.67;;
73729;SDS011;62036;48.128;16.458;2022-09-01T00:13:25;4.50;;;3.00;;
73729;SDS011;62036;48.128;16.458;2022-09-01T00:15:51;4.72;;;2.67;;
73729;SDS011;62036;48.128;16.458;2022-09-01T00:18:18;5.47;;;3.03;;
73729;SDS011;62036;48.128;16.458;2022-09-01T00:20:44;3.60;;;2.70;;
73729;SDS011;62036;48.128;16.458;2022-09-01T00:23:10;3.30;;;3.00;;
73729;SDS011;62036;48.128;16.458;2022-09-01T00:25:36;3.90;;;2.70;;
73729;SDS011;62036;48.128;16.458;2022-09-01T00:28:02;4.50;;;2.72;;
73729;SDS011;62036;48.128;16.458;2022-09-01T00:30:29;2.92;;;2.35;;
73729;SDS011;62036;48.128;16.458;2022-09-01T00:32:55;4.38;;;2.40;;
73729;SDS011;62036;48.128;16.458;2022-09-01T00:35:21;7.13;;;2.72;;
73729;SDS011;62036;48.128;16.458;2022-09-01T00:37:47;3.42;;;2.42;;
73729;SDS011;62036;48.128;16.458;2022-09-01T00:40:14;4.00;;;2.40;;
73729;SDS011;62036;48.128;16.458;2022-09-01T00:42:41;4.38;;;2.58;;
73729;SDS011;62036;48.128;16.458;2022-09-01T00:45:09;5.03;;;2.65;;
73729;SDS011;62036;48.128;16.458;2022-09-01T00:47:35;2.92;;;2.33;;
73729;SDS011;62036;48.128;16.458;2022-09-01T00:50:03;5.28;;;2.25;;
73729;SDS011;62036;48.128;16.458;2022-09-01T00:52:34;4.15;;;2.22;;
73729;SDS011;62036;48.128;16.458;2022-09-01T00:55:04;3.60;;;2.47;;
73729;SDS011;62036;48.128;16.458;2022-09-01T00:57:32;2.72;;;2.22;;
73729;SDS011;62036;48.128;16.458;2022-09-01T01:00:00;2.20;;;2.00;;
73729;SDS011;62036;48.128;16.458;2022-09-01T01:02:26;3.60;;;2.28;;
73729;SDS011;62036;48.128;16.458;2022-09-01T01:04:52;3.70;;;2.40;;
73729;SDS011;62036;48.128;16.458;2022-09-01T01:07:20;5.38;;;2.30;;
73729;SDS011;62036;48.128;16.458;2022-09-01T01:09:46;3.45;;;2.33;;
73729;SDS011;62036;48.128;16.458;2022-09-01T01:12:13;3.92;;;2.10;;
73729;SDS011;62036;48.128;16.458;2022-09-01T01:14:43;2.53;;;1.80;;
73729;SDS011;62036;48.128;16.458;2022-09-01T01:17:10;2.85;;;2.35;;
73729;SDS011;62036;48.128;16.458;2022-09-01T01:19:43;2.55;;;2.10;;
73729;SDS011;62036;48.128;16.458;2022-09-01T01:25:26;2.90;;;2.25;;
73729;SDS011;62036;48.128;16.458;2022-09-01T01:28:03;3.22;;;1.95;;
73729;SDS011;62036;48.128;16.458;2022-09-01T01:30:29;3.30;;;2.20;;
73729;SDS011;62036;48.128;16.458;2022-09-01T01:32:57;2.70;;;1.90;;
73729;SDS011;62036;48.128;16.458;2022-09-01T01:35:24;2.55;;;2.00;;
73729;SDS011;62036;48.128;16.458;2022-09-01T01:37:50;4.43;;;2.20;;
73729;SDS011;62036;48.128;16.458;2022-09-01T01:40:17;3.10;;;1.90;;
73729;SDS011;62036;48.128;16.458;2022-09-01T01:42:44;2.95;;;2.05;;
73729;SDS011;62036;48.128;16.458;2022-09-01T01:45:12;2.20;;;1.98;;
73729;SDS011;62036;48.128;16.458;2022-09-01T01:47:41;2.58;;;2.00;;
73729;SDS011;62036;48.128;16.458;2022-09-01T01:50:08;2.10;;;1.88;;
73729;SDS011;62036;48.128;16.458;2022-09-01T01:52:35;2.85;;;2.17;;
73729;SDS011;62036;48.128;16.458;2022-09-01T01:55:01;2.40;;;2.20;;
73729;SDS011;62036;48.128;16.458;2022-09-01T01:57:27;3.90;;;2.10;;
73729;SDS011;62036;48.128;16.458;2022-09-01T01:59:56;2.33;;;2.00;;
73729;SDS011;62036;48.128;16.458;2022-09-01T02:02:22;3.40;;;2.08;;
73729;SDS011;62036;48.128;16.458;2022-09-01T02:04:48;3.75;;;2.28;;
73729;SDS011;62036;48.128;16.458;2022-09-01T02:07:14;2.38;;;2.03;;
73729;SDS011;62036;48.128;16.458;2022-09-01T02:09:40;3.08;;;2.30;;
73729;SDS011;62036;48.128;16.458;2022-09-01T02:12:10;2.22;;;2.03;;
73729;SDS011;62036;48.128;16.458;2022-09-01T02:14:36;3.20;;;1.92;;
73729;SDS011;62036;48.128;16.458;2022-09-01T02:17:03;4.35;;;2.50;;
73729;SDS011;62036;48.128;16.458;2022-09-01T02:19:31;3.28;;;1.95;;
73729;SDS011;62036;48.128;16.458;2022-09-01T02:22:00;4.30;;;2.00;;
73729;SDS011;62036;48.128;16.458;2022-09-01T02:24:26;3.33;;;1.88;;
73729;SDS011;62036;48.128;16.458;2022-09-01T02:26:56;2.92;;;1.88;;
73729;SDS011;62036;48.128;16.458;2022-09-01T02:29:24;2.22;;;1.63;;
73729;SDS011;62036;48.128;16.458;2022-09-01T02:31:53;3.22;;;2.00;;
73729;SDS011;62036;48.128;16.458;2022-09-01T02:34:20;3.22;;;1.83;;
73729;SDS011;62036;48.128;16.458;2022-09-01T02:36:49;5.43;;;1.80;;
73729;SDS011;62036;48.128;16.458;2022-09-01T02:39:17;2.70;;;1.63;;
73729;SDS011;62036;48.128;16.458;2022-09-01T02:41:44;3.25;;;2.10;;
73729;SDS011;62036;48.128;16.458;2022-09-01T02:44:10;3.58;;;1.70;;
73729;SDS011;62036;48.128;16.458;2022-09-01T02:46:43;2.85;;;1.85;;
73729;SDS011;62036;48.128;16.458;2022-09-01T02:49:10;2.90;;;1.73;;
73729;SDS011;62036;48.128;16.458;2022-09-01T02:51:42;2.95;;;1.65;;
73729;SDS011;62036;48.128;16.458;2022-09-01T02:54:09;2.92;;;1.77;;
73729;SDS011;62036;48.128;16.458;2022-09-01T02:56:37;2.63;;;1.73;;
73729;SDS011;62036;48.128;16.458;2022-09-01T02:59:03;4.50;;;1.67;;
73729;SDS011;62036;48.128;16.458;2022-09-01T03:01:34;2.75;;;1.58;;
73729;SDS011;62036;48.128;16.458;2022-09-01T03:04:02;2.38;;;1.60;;
73729;SDS011;62036;48.128;16.458;2022-09-01T03:06:29;2.70;;;1.48;;
73729;SDS011;62036;48.128;16.458;2022-09-01T03:08:58;4.10;;;1.60;;
73729;SDS011;62036;48.128;16.458;2022-09-01T03:11:25;3.20;;;1.73;;
73729;SDS011;62036;48.128;16.458;2022-09-01T03:13:51;2.45;;;1.42;;
73729;SDS011;62036;48.128;16.458;2022-09-01T03:16:18;3.72;;;1.80;;
73729;SDS011;62036;48.128;16.458;2022-09-01T03:18:44;1.52;;;1.35;;
73729;SDS011;62036;48.128;16.458;2022-09-01T03:21:10;3.05;;;1.50;;
73729;SDS011;62036;48.128;16.458;2022-09-01T03:23:44;2.85;;;1.48;;
73729;SDS011;62036;48.128;16.458;2022-09-01T03:26:11;3.50;;;1.77;;
73729;SDS011;62036;48.128;16.458;2022-09-01T03:28:38;4.20;;;1.90;;
73729;SDS011;62036;48.128;16.458;2022-09-01T03:31:04;3.08;;;2.22;;
73729;SDS011;62036;48.128;16.458;2022-09-01T03:33:31;3.50;;;1.85;;
73729;SDS011;62036;48.128;16.458;2022-09-01T03:35:58;3.53;;;1.85;;
73729;SDS011;62036;48.128;16.458;2022-09-01T03:38:24;2.17;;;1.65;;
73729;SDS011;62036;48.128;16.458;2022-09-01T03:40:53;3.17;;;2.10;;
73729;SDS011;62036;48.128;16.458;2022-09-01T03:43:23;2.63;;;1.98;;
73729;SDS011;62036;48.128;16.458;2022-09-01T03:45:51;2.85;;;1.77;;
73729;SDS011;62036;48.128;16.458;2022-09-01T03:48:19;4.05;;;2.10;;
73729;SDS011;62036;48.128;16.458;2022-09-01T03:50:45;4.47;;;1.90;;
73729;SDS011;62036;48.128;16.458;2022-09-01T03:53:19;3.30;;;1.60;;
73729;SDS011;62036;48.128;16.458;2022-09-01T03:55:47;3.75;;;1.98;;
73729;SDS011;62036;48.128;16.458;2022-09-01T03:58:14;5.32;;;2.92;;
73729;SDS011;62036;48.128;16.458;2022-09-01T04:00:44;5.78;;;2.92;;
73729;SDS011;62036;48.128;16.458;2022-09-01T04:03:11;3.42;;;2.30;;
73729;SDS011;62036;48.128;16.458;2022-09-01T04:05:38;5.13;;;2.17;;
73729;SDS011;62036;48.128;16.458;2022-09-01T04:08:05;2.17;;;1.85;;
73729;SDS011;62036;48.128;16.458;2022-09-01T04:10:35;4.65;;;2.47;;
73729;SDS011;62036;48.128;16.458;2022-09-01T04:13:01;5.05;;;2.20;;
73729;SDS011;62036;48.128;16.458;2022-09-01T04:15:28;3.10;;;1.90;;
73729;SDS011;62036;48.128;16.458;2022-09-01T04:17:56;3.05;;;2.00;;
73729;SDS011;62036;48.128;16.458;2022-09-01T04:20:41;3.97;;;1.88;;
73729;SDS011;62036;48.128;16.458;2022-09-01T04:23:17;3.97;;;1.63;;
73729;SDS011;62036;48.128;16.458;2022-09-01T04:25:58;3.33;;;2.13;;
73729;SDS011;62036;48.128;16.458;2022-09-01T04:28:29;3.38;;;2.25;;
73729;SDS011;62036;48.128;16.458;2022-09-01T04:30:58;2.53;;;1.88;;
73729;SDS011;62036;48.128;16.458;2022-09-01T04:33:27;6.35;;;4.03;;
73729;SDS011;62036;48.128;16.458;2022-09-01T04:36:00;3.28;;;2.65;;
73729;SDS011;62036;48.128;16.458;2022-09-01T04:38:27;5.63;;;3.67;;
73729;SDS011;62036;48.128;16.458;2022-09-01T04:40:53;8.73;;;3.85;;
73729;SDS011;62036;48.128;16.458;2022-09-01T04:43:21;3.10;;;1.80;;
73729;SDS011;62036;48.128;16.458;2022-09-01T04:45:48;3.45;;;1.70;;
73729;SDS011;62036;48.128;16.458;2022-09-01T04:48:15;2.67;;;2.10;;
73729;SDS011;62036;48.128;16.458;2022-09-01T04:50:42;3.88;;;2.20;;
73729;SDS011;62036;48.128;16.458;2022-09-01T04:53:09;3.33;;;2.15;;
73729;SDS011;62036;48.128;16.458;2022-09-01T04:55:37;7.53;;;4.20;;
73729;SDS011;62036;48.128;16.458;2022-09-01T04:58:04;9.10;;;3.65;;
73729;SDS011;62036;48.128;16.458;2022-09-01T05:00:30;4.70;;;2.40;;
73729;SDS011;62036;48.128;16.458;2022-09-01T05:02:58;3.83;;;1.90;;
73729;SDS011;62036;48.128;16.458;2022-09-01T05:05:34;4.00;;;2.25;;
73729;SDS011;62036;48.128;16.458;2022-09-01T05:08:03;5.53;;;2.50;;
73729;SDS011;62036;48.128;16.458;2022-09-01T05:10:29;14.65;;;8.68;;
73729;SDS011;62036;48.128;16.458;2022-09-01T05:12:58;6.63;;;3.35;;
73729;SDS011;62036;48.128;16.458;2022-09-01T05:15:25;3.28;;;1.88;;
73729;SDS011;62036;48.128;16.458;2022-09-01T05:17:51;3.03;;;1.63;;
73729;SDS011;62036;48.128;16.458;2022-09-01T05:20:18;4.80;;;2.30;;
73729;SDS011;62036;48.128;16.458;2022-09-01T05:22:45;3.08;;;1.45;;
73729;SDS011;62036;48.128;16.458;2022-09-01T05:25:11;4.30;;;1.70;;
73729;SDS011;62036;48.128;16.458;2022-09-01T05:27:41;8.40;;;3.80;;
73729;SDS011;62036;48.128;16.458;2022-09-01T05:30:13;7.07;;;2.10;;
73729;SDS011;62036;48.128;16.458;2022-09-01T05:32:41;3.92;;;2.55;;
73729;SDS011;62036;48.128;16.458;2022-09-01T05:35:07;6.35;;;1.95;;
73729;SDS011;62036;48.128;16.458;2022-09-01T05:37:35;3.13;;;1.48;;
73729;SDS011;62036;48.128;16.458;2022-09-01T05:40:06;4.68;;;1.40;;
73729;SDS011;62036;48.128;16.458;2022-09-01T05:42:33;3.10;;;1.95;;
73729;SDS011;62036;48.128;16.458;2022-09-01T05:45:04;3.88;;;1.75;;
73729;SDS011;62036;48.128;16.458;2022-09-01T05:47:31;4.20;;;1.77;;
73729;SDS011;62036;48.128;16.458;2022-09-01T05:50:00;4.47;;;1.58;;
73729;SDS011;62036;48.128;16.458;2022-09-01T05:52:27;2.95;;;1.55;;
73729;SDS011;62036;48.128;16.458;2022-09-01T05:54:55;3.30;;;1.33;;
73729;SDS011;62036;48.128;16.458;2022-09-01T05:57:24;2.58;;;1.60;;
73729;SDS011;62036;48.128;16.458;2022-09-01T05:59:50;2.67;;;1.50;;
73729;SDS011;62036;48.128;16.458;2022-09-01T06:02:18;3.90;;;1.95;;
73729;SDS011;62036;48.128;16.458;2022-09-01T06:04:45;2.45;;;1.60;;
73729;SDS011;62036;48.128;16.458;2022-09-01T06:07:12;4.15;;;1.30;;
73729;SDS011;62036;48.128;16.458;2022-09-01T06:09:43;4.88;;;1.67;;
73729;SDS011;62036;48.128;16.458;2022-09-01T06:14:41;3.50;;;1.83;;
73729;SDS011;62036;48.128;16.458;2022-09-01T06:17:08;1.63;;;1.23;;
73729;SDS011;62036;48.128;16.458;2022-09-01T06:19:36;5.97;;;1.70;;
73729;SDS011;62036;48.128;16.458;2022-09-01T06:22:03;3.55;;;1.50;;
73729;SDS011;62036;48.128;16.458;2022-09-01T06:24:29;3.53;;;1.63;;
73729;SDS011;62036;48.128;16.458;2022-09-01T06:26:55;2.30;;;1.33;;
73729;SDS011;62036;48.128;16.458;2022-09-01T06:29:23;3.33;;;1.40;;
73729;SDS011;62036;48.128;16.458;2022-09-01T06:31:49;3.30;;;1.60;;
73729;SDS011;62036;48.128;16.458;2022-09-01T06:34:16;5.05;;;1.48;;
73729;SDS011;62036;48.128;16.458;2022-09-01T06:36:44;3.65;;;1.60;;
73729;SDS011;62036;48.128;16.458;2022-09-01T06:39:10;3.15;;;1.50;;
73729;SDS011;62036;48.128;16.458;2022-09-01T06:41:47;3.10;;;1.20;;
73729;SDS011;62036;48.128;16.458;2022-09-01T06:44:16;2.72;;;1.88;;
73729;SDS011;62036;48.128;16.458;2022-09-01T06:46:49;3.95;;;1.30;;
73729;SDS011;62036;48.128;16.458;2022-09-01T06:49:15;2.35;;;1.30;;
73729;SDS011;62036;48.128;16.458;2022-09-01T06:51:41;3.38;;;1.17;;
73729;SDS011;62036;48.128;16.458;2022-09-01T06:54:07;3.13;;;1.10;;
73729;SDS011;62036;48.128;16.458;2022-09-01T06:56:38;3.22;;;1.20;;
73729;SDS011;62036;48.128;16.458;2022-09-01T06:59:04;2.88;;;1.20;;
73729;SDS011;62036;48.128;16.458;2022-09-01T07:01:32;3.33;;;1.27;;
73729;SDS011;62036;48.128;16.458;2022-09-01T07:03:58;2.70;;;1.20;;
73729;SDS011;62036;48.128;16.458;2022-09-01T07:06:24;4.25;;;1.60;;
73729;SDS011;62036;48.128;16.458;2022-09-01T07:08:54;3.15;;;1.23;;
73729;SDS011;62036;48.128;16.458;2022-09-01T07:11:22;1.88;;;1.05;;
73729;SDS011;62036;48.128;16.458;2022-09-01T07:13:51;2.45;;;1.27;;
73729;SDS011;62036;48.128;16.458;2022-09-01T07:16:18;3.47;;;1.17;;
73729;SDS011;62036;48.128;16.458;2022-09-01T07:18:47;2.83;;;1.20;;
73729;SDS011;62036;48.128;16.458;2022-09-01T07:21:13;3.85;;;1.42;;
73729;SDS011;62036;48.128;16.458;2022-09-01T07:23:39;2.83;;;1.38;;
73729;SDS011;62036;48.128;16.458;2022-09-01T07:26:07;1.60;;;1.23;;
73729;SDS011;62036;48.128;16.458;2022-09-01T07:28:34;5.45;;;1.38;;
73729;SDS011;62036;48.128;16.458;2022-09-01T07:31:00;3.95;;;1.30;;
73729;SDS011;62036;48.128;16.458;2022-09-01T07:33:29;1.88;;;1.20;;
73729;SDS011;62036;48.128;16.458;2022-09-01T07:35:56;2.30;;;1.20;;
73729;SDS011;62036;48.128;16.458;2022-09-01T07:38:23;2.28;;;1.08;;
73729;SDS011;62036;48.128;16.458;2022-09-01T07:40:50;2.75;;;1.20;;
73729;SDS011;62036;48.128;16.458;2022-09-01T07:43:23;2.70;;;1.10;;
73729;SDS011;62036;48.128;16.458;2022-09-01T07:45:51;3.22;;;1.05;;
73729;SDS011;62036;48.128;16.458;2022-09-01T07:48:20;3.33;;;1.33;;
73729;SDS011;62036;48.128;16.458;2022-09-01T07:50:47;3.03;;;1.17;;
73729;SDS011;62036;48.128;16.458;2022-09-01T07:53:21;2.88;;;0.88;;
73729;SDS011;62036;48.128;16.458;2022-09-01T07:55:48;1.90;;;0.95;;
73729;SDS011;62036;48.128;16.458;2022-09-01T07:58:16;2.85;;;0.98;;
73729;SDS011;62036;48.128;16.458;2022-09-01T08:00:42;2.15;;;1.00;;
73729;SDS011;62036;48.128;16.458;2022-09-01T08:03:10;2.83;;;0.95;;
73729;SDS011;62036;48.128;16.458;2022-09-01T08:05:36;4.30;;;1.20;;
73729;SDS011;62036;48.128;16.458;2022-09-01T08:08:03;5.95;;;1.20;;
73729;SDS011;62036;48.128;16.458;2022-09-01T08:10:29;1.50;;;1.00;;
73729;SDS011;62036;48.128;16.458;2022-09-01T08:12:55;2.63;;;1.13;;
73729;SDS011;62036;48.128;16.458;2022-09-01T08:15:21;3.72;;;1.10;;
73729;SDS011;62036;48.128;16.458;2022-09-01T08:17:47;1.55;;;0.73;;
73729;SDS011;62036;48.128;16.458;2022-09-01T08:20:13;2.00;;;1.00;;
73729;SDS011;62036;48.128;16.458;2022-09-01T08:22:39;1.50;;;0.90;;
73729;SDS011;62036;48.128;16.458;2022-09-01T08:25:06;1.42;;;0.95;;
73729;SDS011;62036;48.128;16.458;2022-09-01T08:27:33;1.25;;;0.75;;
73729;SDS011;62036;48.128;16.458;2022-09-01T08:30:06;1.20;;;0.73;;
73729;SDS011;62036;48.128;16.458;2022-09-01T08:32:34;2.53;;;0.98;;
73729;SDS011;62036;48.128;16.458;2022-09-01T08:35:00;3.63;;;0.73;;
73729;SDS011;62036;48.128;16.458;2022-09-01T08:37:28;3.42;;;1.00;;
73729;SDS011;62036;48.128;16.458;2022-09-01T08:39:55;2.72;;;1.00;;
73729;SDS011;62036;48.128;16.458;2022-09-01T08:45:03;3.08;;;1.15;;
73729;SDS011;62036;48.128;16.458;2022-09-01T08:47:32;3.78;;;1.20;;
73729;SDS011;62036;48.128;16.458;2022-09-01T08:49:58;2.75;;;0.90;;
73729;SDS011;62036;48.128;16.458;2022-09-01T08:55:20;3.53;;;0.88;;
73729;SDS011;62036;48.128;16.458;2022-09-01T08:57:50;1.58;;;0.80;;
73729;SDS011;62036;48.128;16.458;2022-09-01T09:00:19;2.67;;;0.90;;
73729;SDS011;62036;48.128;16.458;2022-09-01T09:03:04;2.55;;;0.60;;
73729;SDS011;62036;48.128;16.458;2022-09-01T09:11:04;2.15;;;0.80;;
73729;SDS011;62036;48.128;16.458;2022-09-01T09:15:57;2.10;;;0.68;;
73729;SDS011;62036;48.128;16.458;2022-09-01T09:18:34;2.35;;;0.93;;
73729;SDS011;62036;48.128;16.458;2022-09-01T09:21:05;2.30;;;0.90;;
73729;SDS011;62036;48.128;16.458;2022-09-01T09:23:35;1.38;;;0.70;;
73729;SDS011;62036;48.128;16.458;2022-09-01T09:26:04;1.73;;;0.77;;
73729;SDS011;62036;48.128;16.458;2022-09-01T09:28:30;4.45;;;1.23;;
73729;SDS011;62036;48.128;16.458;2022-09-01T09:33:41;2.95;;;0.90;;
73729;SDS011;62036;48.128;16.458;2022-09-01T09:36:15;2.50;;;1.38;;
73729;SDS011;62036;48.128;16.458;2022-09-01T09:38:41;2.88;;;1.17;;
73729;SDS011;62036;48.128;16.458;2022-09-01T09:41:17;2.03;;;0.82;;
73729;SDS011;62036;48.128;16.458;2022-09-01T09:46:21;1.63;;;0.70;;
73729;SDS011;62036;48.128;16.458;2022-09-01T09:48:49;6.95;;;2.67;;
73729;SDS011;62036;48.128;16.458;2022-09-01T09:51:20;6.05;;;3.67;;
73729;SDS011;62036;48.128;16.458;2022-09-01T09:53:46;4.30;;;1.73;;
73729;SDS011;62036;48.128;16.458;2022-09-01T09:58:42;6.22;;;2.85;;
73729;SDS011;62036;48.128;16.458;2022-09-01T10:01:11;4.13;;;2.65;;
73729;SDS011;62036;48.128;16.458;2022-09-01T10:03:45;2.08;;;1.08;;
73729;SDS011;62036;48.128;16.458;2022-09-01T10:06:56;3.42;;;0.90;;
73729;SDS011;62036;48.128;16.458;2022-09-01T10:09:10;1.63;;;0.88;;
73729;SDS011;62036;48.128;16.458;2022-09-01T10:11:40;1.20;;;0.80;;
73729;SDS011;62036;48.128;16.458;2022-09-01T10:14:13;1.33;;;0.73;;
73729;SDS011;62036;48.128;16.458;2022-09-01T10:16:41;1.85;;;0.70;;
73729;SDS011;62036;48.128;16.458;2022-09-01T10:19:10;3.13;;;1.10;;
73729;SDS011;62036;48.128;16.458;2022-09-01T10:21:37;3.10;;;1.17;;
73729;SDS011;62036;48.128;16.458;2022-09-01T10:26:50;4.07;;;1.00;;
73729;SDS011;62036;48.128;16.458;2022-09-01T10:29:22;0.88;;;0.50;;
73729;SDS011;62036;48.128;16.458;2022-09-01T10:31:52;1.30;;;0.70;;
73729;SDS011;62036;48.128;16.458;2022-09-01T10:34:18;1.55;;;0.75;;
73729;SDS011;62036;48.128;16.458;2022-09-01T10:36:46;1.65;;;0.68;;
73729;SDS011;62036;48.128;16.458;2022-09-01T10:39:13;3.72;;;1.20;;
73729;SDS011;62036;48.128;16.458;2022-09-01T10:44:24;1.30;;;0.63;;
73729;SDS011;62036;48.128;16.458;2022-09-01T10:46:54;1.02;;;0.60;;
73729;SDS011;62036;48.128;16.458;2022-09-01T10:51:47;1.00;;;0.50;;
73729;SDS011;62036;48.128;16.458;2022-09-01T10:56:58;4.15;;;1.02;;
73729;SDS011;62036;48.128;16.458;2022-09-01T10:59:26;3.08;;;1.33;;
73729;SDS011;62036;48.128;16.458;2022-09-01T11:04:20;2.08;;;1.02;;
73729;SDS011;62036;48.128;16.458;2022-09-01T11:14:27;3.03;;;0.80;;
73729;SDS011;62036;48.128;16.458;2022-09-01T11:27:06;1.70;;;0.63;;
73729;SDS011;62036;48.128;16.458;2022-09-01T11:32:18;1.08;;;0.70;;
73729;SDS011;62036;48.128;16.458;2022-09-01T11:34:44;1.98;;;0.80;;
73729;SDS011;62036;48.128;16.458;2022-09-01T11:37:16;1.92;;;0.70;;
73729;SDS011;62036;48.128;16.458;2022-09-01T11:39:47;0.93;;;0.68;;
73729;SDS011;62036;48.128;16.458;2022-09-01T11:44:59;2.83;;;0.80;;
73729;SDS011;62036;48.128;16.458;2022-09-01T11:47:39;2.05;;;0.70;;
73729;SDS011;62036;48.128;16.458;2022-09-01T11:52:34;2.40;;;0.70;;
73729;SDS011;62036;48.128;16.458;2022-09-01T11:55:02;2.50;;;0.65;;
73729;SDS011;62036;48.128;16.458;2022-09-01T11:59:58;2.63;;;0.75;;
73729;SDS011;62036;48.128;16.458;2022-09-01T12:02:26;1.20;;;0.57;;
73729;SDS011;62036;48.128;16.458;2022-09-01T12:04:55;0.93;;;0.60;;
73729;SDS011;62036;48.128;16.458;2022-09-01T12:09:54;2.38;;;0.80;;
73729;SDS011;62036;48.128;16.458;2022-09-01T12:12:37;2.95;;;0.85;;
73729;SDS011;62036;48.128;16.458;2022-09-01T12:15:05;3.17;;;0.70;;
73729;SDS011;62036;48.128;16.458;2022-09-01T12:17:33;2.13;;;0.50;;
73729;SDS011;62036;48.128;16.458;2022-09-01T12:22:44;1.20;;;0.60;;
73729;SDS011;62036;48.128;16.458;2022-09-01T12:25:20;2.05;;;0.43;;
73729;SDS011;62036;48.128;16.458;2022-09-01T12:27:47;2.13;;;0.70;;
73729;SDS011;62036;48.128;16.458;2022-09-01T12:30:13;1.15;;;0.70;;
73729;SDS011;62036;48.128;16.458;2022-09-01T12:32:39;2.67;;;0.50;;
73729;SDS011;62036;48.128;16.458;2022-09-01T12:35:14;0.90;;;0.50;;
73729;SDS011;62036;48.128;16.458;2022-09-01T12:37:42;7.95;;;4.43;;
73729;SDS011;62036;48.128;16.458;2022-09-01T12:40:20;3.55;;;1.65;;
73729;SDS011;62036;48.128;16.458;2022-09-01T12:42:50;5.63;;;3.10;;
73729;SDS011;62036;48.128;16.458;2022-09-01T12:45:34;4.28;;;2.13;;
73729;SDS011;62036;48.128;16.458;2022-09-01T12:48:00;3.75;;;1.60;;
73729;SDS011;62036;48.128;16.458;2022-09-01T12:52:56;4.43;;;2.40;;
73729;SDS011;62036;48.128;16.458;2022-09-01T12:55:24;4.78;;;2.70;;
73729;SDS011;62036;48.128;16.458;2022-09-01T12:57:52;3.50;;;2.58;;
73729;SDS011;62036;48.128;16.458;2022-09-01T13:00:23;5.68;;;2.92;;
73729;SDS011;62036;48.128;16.458;2022-09-01T13:02:50;3.22;;;2.38;;
73729;SDS011;62036;48.128;16.458;2022-09-01T13:07:43;3.10;;;1.10;;
73729;SDS011;62036;48.128;16.458;2022-09-01T13:10:09;3.05;;;1.35;;
73729;SDS011;62036;48.128;16.458;2022-09-01T13:12:38;5.38;;;1.80;;
73729;SDS011;62036;48.128;16.458;2022-09-01T13:15:05;2.83;;;1.15;;
73729;SDS011;62036;48.128;16.458;2022-09-01T13:17:32;2.53;;;1.33;;
73729;SDS011;62036;48.128;16.458;2022-09-01T13:19:58;1.63;;;0.82;;
73729;SDS011;62036;48.128;16.458;2022-09-01T13:22:24;1.02;;;0.52;;
73729;SDS011;62036;48.128;16.458;2022-09-01T13:24:50;3.08;;;0.93;;
73729;SDS011;62036;48.128;16.458;2022-09-01T13:27:16;1.48;;;0.80;;
73729;SDS011;62036;48.128;16.458;2022-09-01T13:29:42;0.90;;;0.50;;
73729;SDS011;62036;48.128;16.458;2022-09-01T13:32:08;1.10;;;0.60;;
73729;SDS011;62036;48.128;16.458;2022-09-01T13:34:34;1.10;;;0.73;;
73729;SDS011;62036;48.128;16.458;2022-09-01T13:37:00;2.03;;;0.90;;
73729;SDS011;62036;48.128;16.458;2022-09-01T13:39:26;1.25;;;0.93;;
73729;SDS011;62036;48.128;16.458;2022-09-01T13:41:52;1.33;;;0.75;;
73729;SDS011;62036;48.128;16.458;2022-09-01T13:44:19;1.75;;;0.63;;
73729;SDS011;62036;48.128;16.458;2022-09-01T13:46:45;1.33;;;0.80;;
73729;SDS011;62036;48.128;16.458;2022-09-01T13:49:11;1.95;;;0.65;;
73729;SDS011;62036;48.128;16.458;2022-09-01T13:51:37;0.95;;;0.80;;
73729;SDS011;62036;48.128;16.458;2022-09-01T13:54:04;1.05;;;0.60;;
73729;SDS011;62036;48.128;16.458;2022-09-01T13:56:30;2.15;;;0.80;;
73729;SDS011;62036;48.128;16.458;2022-09-01T13:58:56;1.35;;;0.77;;
73729;SDS011;62036;48.128;16.458;2022-09-01T14:01:22;1.33;;;0.43;;
73729;SDS011;62036;48.128;16.458;2022-09-01T14:03:49;1.90;;;0.73;;
73729;SDS011;62036;48.128;16.458;2022-09-01T14:06:16;1.42;;;0.50;;
73729;SDS011;62036;48.128;16.458;2022-09-01T14:08:42;2.38;;;0.82;;
73729;SDS011;62036;48.128;16.458;2022-09-01T14:11:14;1.10;;;0.73;;
73729;SDS011;62036;48.128;16.458;2022-09-01T14:13:40;1.88;;;0.90;;
73729;SDS011;62036;48.128;16.458;2022-09-01T14:16:09;1.35;;;0.75;;
73729;SDS011;62036;48.128;16.458;2022-09-01T14:18:36;1.55;;;0.73;;
73729;SDS011;62036;48.128;16.458;2022-09-01T14:21:02;2.58;;;0.80;;
73729;SDS011;62036;48.128;16.458;2022-09-01T14:23:28;1.20;;;0.55;;
73729;SDS011;62036;48.128;16.458;2022-09-01T14:25:54;2.20;;;0.82;;
73729;SDS011;62036;48.128;16.458;2022-09-01T14:28:21;2.10;;;0.50;;
73729;SDS011;62036;48.128;16.458;2022-09-01T14:30:48;1.02;;;0.50;;
73729;SDS011;62036;48.128;16.458;2022-09-01T14:33:14;1.25;;;0.80;;
73729;SDS011;62036;48.128;16.458;2022-09-01T14:35:42;2.05;;;0.70;;
73729;SDS011;62036;48.128;16.458;2022-09-01T14:38:08;2.40;;;0.98;;
73729;SDS011;62036;48.128;16.458;2022-09-01T14:40:36;2.78;;;0.60;;
73729;SDS011;62036;48.128;16.458;2022-09-01T14:43:03;1.30;;;0.47;;
73729;SDS011;62036;48.128;16.458;2022-09-01T14:45:29;1.33;;;0.70;;
73729;SDS011;62036;48.128;16.458;2022-09-01T14:47:56;2.85;;;0.60;;
73729;SDS011;62036;48.128;16.458;2022-09-01T14:50:24;1.65;;;0.50;;
73729;SDS011;62036;48.128;16.458;2022-09-01T14:52:52;1.33;;;0.52;;
73729;SDS011;62036;48.128;16.458;2022-09-01T14:55:19;3.00;;;0.50;;
73729;SDS011;62036;48.128;16.458;2022-09-01T14:57:45;1.27;;;0.65;;
73729;SDS011;62036;48.128;16.458;2022-09-01T15:00:11;3.70;;;0.80;;
73729;SDS011;62036;48.128;16.458;2022-09-01T15:02:38;3.65;;;2.80;;
73729;SDS011;62036;48.128;16.458;2022-09-01T15:05:04;4.88;;;2.58;;
73729;SDS011;62036;48.128;16.458;2022-09-01T15:07:30;4.57;;;2.80;;
73729;SDS011;62036;48.128;16.458;2022-09-01T15:09:57;11.85;;;5.97;;
73729;SDS011;62036;48.128;16.458;2022-09-01T15:12:23;11.63;;;6.57;;
73729;SDS011;62036;48.128;16.458;2022-09-01T15:14:49;2.72;;;2.03;;
73729;SDS011;62036;48.128;16.458;2022-09-01T15:17:15;2.08;;;1.08;;
73729;SDS011;62036;48.128;16.458;2022-09-01T15:19:41;1.92;;;1.15;;
73729;SDS011;62036;48.128;16.458;2022-09-01T15:22:08;2.85;;;1.10;;
73729;SDS011;62036;48.128;16.458;2022-09-01T15:24:36;2.58;;;0.68;;
73729;SDS011;62036;48.128;16.458;2022-09-01T15:27:02;1.63;;;0.57;;
73729;SDS011;62036;48.128;16.458;2022-09-01T15:29:30;1.50;;;0.70;;
73729;SDS011;62036;48.128;16.458;2022-09-01T15:31:58;2.08;;;0.75;;
73729;SDS011;62036;48.128;16.458;2022-09-01T15:34:25;1.77;;;0.52;;
73729;SDS011;62036;48.128;16.458;2022-09-01T15:36:51;0.82;;;0.43;;
73729;SDS011;62036;48.128;16.458;2022-09-01T15:39:17;0.85;;;0.35;;
73729;SDS011;62036;48.128;16.458;2022-09-01T15:41:43;2.42;;;0.65;;
73729;SDS011;62036;48.128;16.458;2022-09-01T15:44:09;1.45;;;0.57;;
73729;SDS011;62036;48.128;16.458;2022-09-01T15:46:36;2.38;;;0.50;;
73729;SDS011;62036;48.128;16.458;2022-09-01T15:49:07;0.70;;;0.40;;
73729;SDS011;62036;48.128;16.458;2022-09-01T15:51:36;1.95;;;0.60;;
73729;SDS011;62036;48.128;16.458;2022-09-01T15:54:04;1.05;;;0.57;;
73729;SDS011;62036;48.128;16.458;2022-09-01T15:56:31;4.40;;;0.55;;